Time;durP1;ratioP1;P1;durP2;ratioP2;P2;SDS_P1;SDS_P2;PMS_P1;PMS_P2;Temp;Humidity;BMP_temperature;BMP_pressure;BME280_temperature;BME280_humidity;BME280_pressure;Samples;Min_cycle;Max_cycle;Signal;HPM_P1;HPM_P2
2021/11/02 00:01:20;;;;;;;72.60;43.15;;;;;;;;;;5033695;28;20051;-96
2021/11/02 00:03:46;;;;;;;87.32;45.60;;;;;;;;;;5034773;28;20136;-96
2021/11/02 00:06:12;;;;;;;94.28;49.88;;;;;;;;;;5035088;28;20041;-95
2021/11/02 00:08:38;;;;;;;94.82;52.88;;;;;;;;;;5033028;28;20761;-96
2021/11/02 00:11:04;;;;;;;114.32;57.65;;;;;;;;;;5032053;28;20075;-96
2021/11/02 00:13:34;;;;;;;127.32;61.05;;;;;;;;;;5032012;28;20021;-96
2021/11/02 00:16:02;;;;;;;121.63;60.78;;;;;;;;;;5033923;28;20025;-96
2021/11/02 00:18:28;;;;;;;118.10;60.80;;;;;;;;;;5032548;28;20132;-96
2021/11/02 00:20:59;;;;;;;130.43;61.70;;;;;;;;;;5032661;28;20046;-96
2021/11/02 00:23:25;;;;;;;130.85;63.38;;;;;;;;;;5032483;28;20136;-96
2021/11/02 00:25:51;;;;;;;121.18;57.22;;;;;;;;;;5032271;28;20064;-96
2021/11/02 00:28:18;;;;;;;125.95;61.22;;;;;;;;;;5032208;28;20018;-96
2021/11/02 00:30:44;;;;;;;122.05;62.08;;;;;;;;;;5031229;28;20067;-96
2021/11/02 00:33:10;;;;;;;101.75;51.65;;;;;;;;;;5031450;28;20025;-95
2021/11/02 00:35:37;;;;;;;91.18;48.40;;;;;;;;;;5031938;28;20029;-96
2021/11/02 00:38:04;;;;;;;81.90;45.85;;;;;;;;;;5033594;28;20021;-96
2021/11/02 00:40:30;;;;;;;83.00;47.65;;;;;;;;;;5041556;28;20042;-96
2021/11/02 00:42:59;;;;;;;92.97;47.92;;;;;;;;;;5033424;28;20107;-96
2021/11/02 00:45:31;;;;;;;100.38;52.80;;;;;;;;;;5032130;28;20033;-96
2021/11/02 00:47:58;;;;;;;97.90;51.63;;;;;;;;;;5030796;28;20029;-96
2021/11/02 00:50:24;;;;;;;94.45;50.13;;;;;;;;;;5018604;28;20507;-96
2021/11/02 00:52:50;;;;;;;83.28;48.42;;;;;;;;;;5010838;28;20100;-95
2021/11/02 00:55:16;;;;;;;74.40;45.05;;;;;;;;;;5011000;28;20454;-96
2021/11/02 00:57:42;;;;;;;79.00;42.92;;;;;;;;;;5012015;28;20036;-96
2021/11/02 01:00:10;;;;;;;74.47;42.88;;;;;;;;;;5030279;28;20029;-96
2021/11/02 01:02:37;;;;;;;71.97;41.42;;;;;;;;;;5029880;28;20416;-95
2021/11/02 01:05:03;;;;;;;73.35;42.55;;;;;;;;;;5030235;28;20026;-95
2021/11/02 01:07:29;;;;;;;72.47;41.72;;;;;;;;;;5029817;28;20351;-95
2021/11/02 01:09:55;;;;;;;75.47;44.92;;;;;;;;;;5029998;28;20079;-95
2021/11/02 01:12:22;;;;;;;68.38;41.80;;;;;;;;;;5030034;28;20479;-96
2021/11/02 01:14:48;;;;;;;71.32;41.97;;;;;;;;;;5030026;28;20075;-95
2021/11/02 01:17:14;;;;;;;77.10;44.67;;;;;;;;;;5029999;28;20033;-96
2021/11/02 01:19:40;;;;;;;77.35;44.25;;;;;;;;;;5029486;28;20037;-95
2021/11/02 01:22:06;;;;;;;69.88;42.17;;;;;;;;;;5029727;28;20169;-95
2021/11/02 01:24:33;;;;;;;76.50;43.90;;;;;;;;;;5030152;28;20029;-95
2021/11/02 01:26:59;;;;;;;72.43;40.53;;;;;;;;;;5029656;28;20022;-95
2021/11/02 01:29:25;;;;;;;68.70;42.08;;;;;;;;;;5029815;28;20471;-95
2021/11/02 01:31:51;;;;;;;73.88;43.47;;;;;;;;;;5029853;28;20120;-96
2021/11/02 01:34:18;;;;;;;70.50;42.92;;;;;;;;;;5030089;28;20022;-96
2021/11/02 01:36:44;;;;;;;74.85;44.80;;;;;;;;;;5029838;28;20029;-95
2021/11/02 01:39:10;;;;;;;72.55;42.75;;;;;;;;;;5029893;28;20404;-95
2021/11/02 01:41:36;;;;;;;75.13;44.13;;;;;;;;;;5029911;28;20091;-95
2021/11/02 01:44:03;;;;;;;75.50;45.38;;;;;;;;;;5029613;28;20029;-95
2021/11/02 01:46:30;;;;;;;71.28;44.83;;;;;;;;;;5029725;28;20056;-96
2021/11/02 01:48:58;;;;;;;75.05;44.20;;;;;;;;;;5029874;28;20052;-95
2021/11/02 01:51:24;;;;;;;76.43;44.78;;;;;;;;;;5030223;28;20128;-93
2021/11/02 01:53:51;;;;;;;80.82;46.20;;;;;;;;;;5030135;28;20116;-95
2021/11/02 01:56:18;;;;;;;88.43;48.05;;;;;;;;;;5029505;28;20040;-95
2021/11/02 01:58:46;;;;;;;94.15;52.10;;;;;;;;;;5030082;28;20028;-95
2021/11/02 02:01:18;;;;;;;87.05;49.80;;;;;;;;;;5030641;28;20037;-95
2021/11/02 02:03:55;;;;;;;89.10;48.10;;;;;;;;;;5029732;28;20488;-94
2021/11/02 02:06:22;;;;;;;70.60;38.50;;;;;;;;;;5029404;28;20391;-95
2021/11/02 02:08:51;;;;;;;44.13;26.27;;;;;;;;;;5029031;28;20025;-94
2021/11/02 02:11:20;;;;;;;53.15;32.95;;;;;;;;;;5029331;28;20029;-93
2021/11/02 02:13:51;;;;;;;24.65;14.70;;;;;;;;;;5030004;28;20025;-94
2021/11/02 02:16:20;;;;;;;20.25;11.13;;;;;;;;;;5029379;28;20356;-93
2021/11/02 02:18:46;;;;;;;9.48;5.30;;;;;;;;;;5029729;28;20376;-95
2021/11/02 02:21:12;;;;;;;7.82;4.20;;;;;;;;;;5029039;28;20492;-93
2021/11/02 02:23:43;;;;;;;4.63;2.13;;;;;;;;;;5032779;28;20030;-94
2021/11/02 02:26:18;;;;;;;4.85;2.15;;;;;;;;;;5032798;28;20025;-94
2021/11/02 02:28:45;;;;;;;4.60;1.90;;;;;;;;;;5033177;28;20475;-96
2021/11/02 02:31:12;;;;;;;3.40;1.30;;;;;;;;;;5033623;28;20029;-94
2021/11/02 02:33:43;;;;;;;2.38;0.95;;;;;;;;;;5027373;28;20026;-92
2021/11/02 02:36:10;;;;;;;3.00;1.10;;;;;;;;;;5017360;28;20025;-93
2021/11/02 02:38:38;;;;;;;3.90;1.20;;;;;;;;;;5017667;28;20302;-96
2021/11/02 02:41:05;;;;;;;2.78;1.00;;;;;;;;;;5015433;28;20042;-96
2021/11/02 02:43:35;;;;;;;2.72;0.80;;;;;;;;;;5017771;28;20565;-95
2021/11/02 02:46:01;;;;;;;2.70;0.90;;;;;;;;;;5024635;28;20030;-95
2021/11/02 02:48:28;;;;;;;1.48;0.60;;;;;;;;;;5033491;28;20491;-96
2021/11/02 02:50:56;;;;;;;2.75;0.80;;;;;;;;;;5034586;28;20487;-96
2021/11/02 02:53:22;;;;;;;3.25;0.98;;;;;;;;;;5035114;28;20017;-95
2021/11/02 02:55:49;;;;;;;3.13;0.90;;;;;;;;;;5037472;28;20029;-95
2021/11/02 02:58:16;;;;;;;2.22;0.80;;;;;;;;;;5025441;28;20029;-95
2021/11/02 03:00:43;;;;;;;2.60;0.90;;;;;;;;;;5018833;28;20546;-96
2021/11/02 03:03:10;;;;;;;2.92;0.90;;;;;;;;;;5039243;28;20024;-96
2021/11/02 03:05:36;;;;;;;2.53;0.90;;;;;;;;;;5036649;28;20033;-96
2021/11/02 03:08:04;;;;;;;2.88;1.00;;;;;;;;;;5037571;28;20049;-94
2021/11/02 03:10:30;;;;;;;1.95;0.77;;;;;;;;;;5038658;28;20034;-95
2021/11/02 03:12:58;;;;;;;3.65;1.05;;;;;;;;;;5036294;28;20022;-96
2021/11/02 03:18:32;;;;;;;3.83;1.38;;;;;;;;;;5037463;28;20036;-95
2021/11/02 03:59:36;;;;;;;3.03;1.30;;;;;;;;;;4916908;29;20028;-95
2021/11/02 04:25:29;;;;;;;2.22;0.82;;;;;;;;;;4914207;29;20068;-96
2021/11/02 05:08:30;;;;;;;3.25;1.38;;;;;;;;;;5033401;28;20455;-96
2021/11/02 05:46:50;;;;;;;6.82;2.80;;;;;;;;;;5033035;28;20116;-96
2021/11/02 05:57:21;;;;;;;5.45;2.45;;;;;;;;;;5031910;28;20472;-96
2021/11/02 05:59:55;;;;;;;4.55;2.38;;;;;;;;;;5031111;28;20033;-95
2021/11/02 06:29:26;;;;;;;8.38;4.05;;;;;;;;;;5017900;28;20056;-96
2021/11/02 06:31:59;;;;;;;4.78;2.03;;;;;;;;;;5000559;28;20048;-96
2021/11/02 06:34:47;;;;;;;;;;;;;;;;;;4998099;28;20109;-96
2021/11/02 07:15:44;;;;;;;6.80;2.65;;;;;;;;;;5005219;28;20041;-96
2021/11/02 07:20:45;;;;;;;14.80;10.52;;;;;;;;;;5007689;28;20052;-96
2021/11/02 07:26:05;;;;;;;;;;;;;;;;;;5038547;28;20037;-96
2021/11/02 08:47:29;;;;;;;4.65;2.15;;;;;;;;;;5039444;28;20033;-96
2021/11/02 08:49:55;;;;;;;7.03;3.17;;;;;;;;;;5035107;28;20115;-96
2021/11/02 08:52:22;;;;;;;5.13;2.33;;;;;;;;;;5036609;28;20139;-96
2021/11/02 08:54:50;;;;;;;13.07;6.22;;;;;;;;;;5034726;28;20144;-96
2021/11/02 08:57:17;;;;;;;10.40;6.88;;;;;;;;;;5034680;28;20025;-96
2021/11/02 08:59:44;;;;;;;7.53;4.88;;;;;;;;;;5034547;28;20025;-96
2021/11/02 09:02:11;;;;;;;7.00;3.63;;;;;;;;;;5037086;28;20132;-96
2021/11/02 09:05:00;;;;;;;6.70;3.08;;;;;;;;;;5035549;28;20025;-96
2021/11/02 09:07:28;;;;;;;5.95;2.90;;;;;;;;;;5028153;28;20545;-96
2021/11/02 09:09:56;;;;;;;4.90;2.92;;;;;;;;;;5037845;28;20032;-96
2021/11/02 09:12:27;;;;;;;8.52;5.38;;;;;;;;;;5038578;28;20083;-96
2021/11/02 09:14:53;;;;;;;8.18;3.67;;;;;;;;;;5038448;28;20076;-96
2021/11/02 09:17:21;;;;;;;7.93;4.20;;;;;;;;;;5037774;28;20499;-95
2021/11/02 09:19:48;;;;;;;8.77;5.07;;;;;;;;;;5035803;28;20026;-96
2021/11/02 09:22:15;;;;;;;9.15;6.07;;;;;;;;;;5037508;28;20100;-96
2021/11/02 09:24:44;;;;;;;7.55;4.78;;;;;;;;;;5034486;28;20120;-96
2021/11/02 09:27:13;;;;;;;6.00;3.08;;;;;;;;;;5039203;28;20103;-96
2021/11/02 09:29:39;;;;;;;5.75;3.00;;;;;;;;;;5035706;28;20033;-95
2021/11/02 09:32:08;;;;;;;5.05;2.63;;;;;;;;;;5038316;28;20041;-96
2021/11/02 09:34:35;;;;;;;5.28;3.15;;;;;;;;;;5039461;28;20025;-96
2021/11/02 09:37:07;;;;;;;6.05;3.60;;;;;;;;;;5039122;28;20482;-96
2021/11/02 09:39:40;;;;;;;7.30;4.00;;;;;;;;;;5037951;28;20028;-96
2021/11/02 09:42:33;;;;;;;6.95;3.67;;;;;;;;;;5039547;28;20113;-96
2021/11/02 09:45:03;;;;;;;7.07;3.72;;;;;;;;;;5016137;28;20496;-96
2021/11/02 09:47:29;;;;;;;6.53;3.47;;;;;;;;;;5036899;28;20480;-96
2021/11/02 09:49:58;;;;;;;5.55;3.00;;;;;;;;;;5036979;28;20036;-96
2021/11/02 09:52:41;;;;;;;5.50;2.90;;;;;;;;;;5036600;28;20063;-96
2021/11/02 09:55:07;;;;;;;6.03;3.40;;;;;;;;;;5037539;28;20387;-96
2021/11/02 09:57:49;;;;;;;6.60;3.65;;;;;;;;;;5037348;28;20033;-96
2021/11/02 10:00:26;;;;;;;6.47;3.28;;;;;;;;;;5038538;28;20033;-96
2021/11/02 10:02:57;;;;;;;7.28;4.53;;;;;;;;;;5040118;28;20033;-96
2021/11/02 10:05:29;;;;;;;5.97;3.42;;;;;;;;;;5038428;28;20545;-96
2021/11/02 10:08:04;;;;;;;7.28;3.50;;;;;;;;;;5035407;28;20100;-96
2021/11/02 10:10:39;;;;;;;6.97;2.97;;;;;;;;;;5034569;28;20045;-95
2021/11/02 10:13:19;;;;;;;9.07;4.63;;;;;;;;;;5018914;28;20120;-96
2021/11/02 10:15:48;;;;;;;6.80;3.97;;;;;;;;;;5034840;28;20030;-95
2021/11/02 10:18:21;;;;;;;7.00;3.63;;;;;;;;;;5035597;28;20108;-96
2021/11/02 10:21:02;;;;;;;7.05;3.60;;;;;;;;;;5034116;28;20041;-96
2021/11/02 10:23:47;;;;;;;8.38;4.10;;;;;;;;;;5034955;28;20044;-96
2021/11/02 10:26:19;;;;;;;7.35;4.28;;;;;;;;;;5034577;28;20034;-96
2021/11/02 10:29:05;;;;;;;9.82;5.32;;;;;;;;;;5034423;28;20021;-96
2021/11/02 10:31:50;;;;;;;13.80;9.40;;;;;;;;;;5034577;28;20034;-96
2021/11/02 10:34:35;;;;;;;11.30;6.68;;;;;;;;;;5032820;28;20549;-96
2021/11/02 10:37:07;;;;;;;7.95;4.65;;;;;;;;;;5034371;28;20033;-96
2021/11/02 10:39:40;;;;;;;8.93;5.32;;;;;;;;;;5033780;28;20021;-96
2021/11/02 10:42:26;;;;;;;8.43;5.43;;;;;;;;;;5032712;28;20037;-96
2021/11/02 10:44:53;;;;;;;5.68;3.28;;;;;;;;;;5035041;28;20049;-96
2021/11/02 10:47:25;;;;;;;8.35;4.38;;;;;;;;;;5032952;28;20049;-96
2021/11/02 10:49:54;;;;;;;7.00;3.25;;;;;;;;;;5033440;28;20391;-96
2021/11/02 10:52:27;;;;;;;6.03;3.50;;;;;;;;;;5033042;28;20108;-95
2021/11/02 10:55:06;;;;;;;6.18;3.72;;;;;;;;;;5034063;28;20029;-96
2021/11/02 10:57:37;;;;;;;15.32;9.90;;;;;;;;;;5033340;28;20037;-96
2021/11/02 11:00:09;;;;;;;8.15;4.95;;;;;;;;;;5033643;28;20056;-96
2021/11/02 11:02:37;;;;;;;6.93;4.50;;;;;;;;;;5034205;28;20125;-96
2021/11/02 11:05:04;;;;;;;8.13;4.60;;;;;;;;;;5033560;28;20053;-96
2021/11/02 11:07:35;;;;;;;6.13;3.53;;;;;;;;;;5033313;28;20063;-96
2021/11/02 11:10:02;;;;;;;6.55;4.00;;;;;;;;;;5033556;28;20422;-96
2021/11/02 11:12:31;;;;;;;5.78;3.45;;;;;;;;;;5022236;28;20085;-96
2021/11/02 11:15:02;;;;;;;5.90;3.50;;;;;;;;;;5014512;28;20022;-96
2021/11/02 11:17:29;;;;;;;8.57;5.85;;;;;;;;;;5014236;28;20030;-95
2021/11/02 11:20:04;;;;;;;8.88;4.72;;;;;;;;;;5014045;28;20018;-96
2021/11/02 11:22:35;;;;;;;7.25;3.50;;;;;;;;;;5013812;28;20053;-96
2021/11/02 11:25:04;;;;;;;9.27;5.18;;;;;;;;;;5014154;28;20056;-95
2021/11/02 11:27:32;;;;;;;8.30;4.30;;;;;;;;;;5032883;28;20026;-95
2021/11/02 11:30:03;;;;;;;10.88;6.93;;;;;;;;;;5035211;28;20053;-96
2021/11/02 11:32:34;;;;;;;9.07;4.72;;;;;;;;;;5032879;28;20026;-96
2021/11/02 11:35:02;;;;;;;6.03;3.67;;;;;;;;;;5031854;28;20265;-96
2021/11/02 11:37:28;;;;;;;7.97;4.45;;;;;;;;;;5031932;28;20044;-96
2021/11/02 11:40:00;;;;;;;6.35;4.03;;;;;;;;;;5032589;28;20503;-95
2021/11/02 11:42:29;;;;;;;5.93;3.58;;;;;;;;;;5012540;28;20045;-96
2021/11/02 11:44:59;;;;;;;10.45;4.82;;;;;;;;;;5018184;28;20083;-96
2021/11/02 11:47:25;;;;;;;6.05;3.50;;;;;;;;;;5031709;28;20072;-96
2021/11/02 11:49:52;;;;;;;7.18;5.10;;;;;;;;;;5031841;28;20075;-96
2021/11/02 11:52:23;;;;;;;6.63;3.90;;;;;;;;;;5032098;28;20271;-96
2021/11/02 11:54:50;;;;;;;5.47;3.20;;;;;;;;;;5031362;28;20029;-96
2021/11/02 11:57:27;;;;;;;5.28;3.10;;;;;;;;;;5031341;28;20034;-95
2021/11/02 11:59:58;;;;;;;13.13;4.00;;;;;;;;;;5031696;28;20030;-96
2021/11/02 12:02:30;;;;;;;5.82;3.25;;;;;;;;;;5031599;28;20099;-96
2021/11/02 12:05:00;;;;;;;6.47;3.40;;;;;;;;;;5033734;28;20025;-96
2021/11/02 12:07:35;;;;;;;8.80;4.75;;;;;;;;;;5031403;28;20059;-95
2021/11/02 12:10:08;;;;;;;9.00;3.78;;;;;;;;;;5031672;28;20494;-96
2021/11/02 12:12:39;;;;;;;6.88;3.50;;;;;;;;;;5032394;28;20029;-95
2021/11/02 12:15:10;;;;;;;5.75;3.10;;;;;;;;;;5032313;28;20029;-96
2021/11/02 12:17:40;;;;;;;6.00;4.00;;;;;;;;;;5032297;28;20051;-96
2021/11/02 12:20:08;;;;;;;5.80;3.13;;;;;;;;;;5033866;28;20021;-96
2021/11/02 12:22:39;;;;;;;6.40;3.10;;;;;;;;;;5031907;28;20041;-95
2021/11/02 12:25:07;;;;;;;8.87;5.10;;;;;;;;;;5031691;28;20021;-95
2021/11/02 12:27:38;;;;;;;9.32;5.28;;;;;;;;;;5030635;28;20030;-96
2021/11/02 12:30:05;;;;;;;13.55;3.30;;;;;;;;;;5031641;28;20388;-95
2021/11/02 12:32:32;;;;;;;5.18;2.03;;;;;;;;;;5031565;28;20037;-95
2021/11/02 12:35:08;;;;;;;5.97;2.40;;;;;;;;;;5032073;28;20466;-96
2021/11/02 12:37:35;;;;;;;4.15;1.90;;;;;;;;;;5011550;28;20507;-95
2021/11/02 12:40:16;;;;;;;16.88;4.80;;;;;;;;;;5012131;28;20033;-95
2021/11/02 12:42:44;;;;;;;4.93;1.60;;;;;;;;;;5011652;28;20109;-96
2021/11/02 12:45:11;;;;;;;4.53;1.83;;;;;;;;;;5023186;28;20021;-96
2021/11/02 12:47:38;;;;;;;10.63;2.85;;;;;;;;;;5032598;28;20083;-96
2021/11/02 12:50:05;;;;;;;8.75;2.40;;;;;;;;;;5034088;28;20507;-95
2021/11/02 12:52:35;;;;;;;17.15;3.72;;;;;;;;;;5033933;28;20029;-96
2021/11/02 12:55:09;;;;;;;4.22;2.03;;;;;;;;;;5033253;28;20026;-95
2021/11/02 12:57:40;;;;;;;12.25;2.53;;;;;;;;;;5033511;28;20431;-95
2021/11/02 13:00:11;;;;;;;4.18;1.80;;;;;;;;;;5033470;28;20039;-96
2021/11/02 13:02:39;;;;;;;8.70;3.00;;;;;;;;;;5034471;28;20419;-96
2021/11/02 13:05:25;;;;;;;13.68;10.90;;;;;;;;;;5033763;28;20542;-96
2021/11/02 13:08:01;;;;;;;6.10;3.45;;;;;;;;;;5033647;28;20044;-95
2021/11/02 13:10:31;;;;;;;6.57;2.92;;;;;;;;;;5032888;28;20391;-96
2021/11/02 13:13:08;;;;;;;5.88;2.70;;;;;;;;;;5034645;28;20022;-96
2021/11/02 13:15:51;;;;;;;5.93;2.58;;;;;;;;;;5034069;28;20033;-94
2021/11/02 13:18:39;;;;;;;5.63;2.30;;;;;;;;;;5032774;28;20471;-95
2021/11/02 13:21:06;;;;;;;4.53;2.15;;;;;;;;;;5034533;28;20052;-95
2021/11/02 13:23:37;;;;;;;12.95;3.08;;;;;;;;;;5037048;28;20022;-94
2021/11/02 13:26:13;;;;;;;6.72;2.10;;;;;;;;;;5034244;28;20044;-95
2021/11/02 13:28:40;;;;;;;7.82;2.80;;;;;;;;;;5034116;28;20096;-94
2021/11/02 13:31:07;;;;;;;5.07;2.22;;;;;;;;;;5032275;28;20040;-95
2021/11/02 13:33:34;;;;;;;5.60;2.30;;;;;;;;;;5032547;28;20041;-96
2021/11/02 13:36:00;;;;;;;7.95;2.67;;;;;;;;;;5033664;28;20579;-95
2021/11/02 13:38:26;;;;;;;5.70;2.65;;;;;;;;;;5035173;28;20037;-95
2021/11/02 13:40:54;;;;;;;4.32;2.15;;;;;;;;;;5042349;28;20022;-96
2021/11/02 13:43:31;;;;;;;9.23;3.10;;;;;;;;;;5040001;28;20097;-94
2021/11/02 13:45:57;;;;;;;5.38;2.72;;;;;;;;;;5038111;28;20063;-95
2021/11/02 13:48:23;;;;;;;10.35;3.30;;;;;;;;;;5034698;28;20033;-95
2021/11/02 13:50:49;;;;;;;8.00;3.95;;;;;;;;;;5035041;28;20495;-95
2021/11/02 13:53:15;;;;;;;6.68;2.90;;;;;;;;;;5034896;28;20423;-94
2021/11/02 13:55:41;;;;;;;6.28;2.85;;;;;;;;;;5033390;28;20064;-95
2021/11/02 13:58:07;;;;;;;17.95;5.05;;;;;;;;;;5031985;28;20026;-95
2021/11/02 14:00:34;;;;;;;7.00;3.28;;;;;;;;;;5034866;28;20037;-94
2021/11/02 14:03:03;;;;;;;7.90;3.90;;;;;;;;;;5033160;28;20116;-94
2021/11/02 14:05:29;;;;;;;8.43;3.70;;;;;;;;;;5030919;28;20038;-94
2021/11/02 14:07:56;;;;;;;7.95;3.67;;;;;;;;;;5031103;28;20061;-95
2021/11/02 14:10:27;;;;;;;7.78;3.88;;;;;;;;;;5030891;28;20038;-94
2021/11/02 14:12:53;;;;;;;8.23;3.58;;;;;;;;;;5033563;28;20029;-94
2021/11/02 14:15:23;;;;;;;10.85;4.07;;;;;;;;;;5033641;28;20045;-95
2021/11/02 14:17:53;;;;;;;5.18;2.60;;;;;;;;;;5035356;28;20128;-94
2021/11/02 14:20:34;;;;;;;6.25;2.30;;;;;;;;;;5034909;28;20032;-94
2021/11/02 14:23:01;;;;;;;5.63;2.33;;;;;;;;;;5037751;28;20109;-95
2021/11/02 14:25:37;;;;;;;6.38;1.98;;;;;;;;;;5037697;28;20065;-95
2021/11/02 14:28:04;;;;;;;4.78;2.50;;;;;;;;;;5041801;28;20025;-94
2021/11/02 14:30:33;;;;;;;6.90;3.10;;;;;;;;;;5044912;28;20411;-94
2021/11/02 14:33:00;;;;;;;5.72;2.63;;;;;;;;;;5037434;28;20384;-94
2021/11/02 14:35:38;;;;;;;7.32;2.22;;;;;;;;;;5037825;28;20286;-94
2021/11/02 14:38:09;;;;;;;8.63;2.15;;;;;;;;;;5019545;28;20022;-95
2021/11/02 14:40:37;;;;;;;7.13;2.42;;;;;;;;;;5018093;28;20082;-94
2021/11/02 14:43:17;;;;;;;5.40;2.10;;;;;;;;;;5018159;28;20041;-94
2021/11/02 14:45:50;;;;;;;9.00;2.90;;;;;;;;;;5018173;28;20028;-93
2021/11/02 14:48:35;;;;;;;4.95;2.35;;;;;;;;;;5027863;28;20022;-95
2021/11/02 14:51:07;;;;;;;4.28;2.30;;;;;;;;;;5040991;28;20044;-94
2021/11/02 14:53:37;;;;;;;5.88;2.60;;;;;;;;;;5038634;28;20025;-95
2021/11/02 14:56:05;;;;;;;5.15;2.85;;;;;;;;;;5038137;28;20033;-94
2021/11/02 14:58:43;;;;;;;4.85;2.75;;;;;;;;;;5038101;28;20032;-94
2021/11/02 15:01:22;;;;;;;8.10;2.95;;;;;;;;;;5037163;28;20103;-95
2021/11/02 15:03:53;;;;;;;6.20;3.35;;;;;;;;;;5037195;28;20423;-95
2021/11/02 15:06:20;;;;;;;9.60;3.15;;;;;;;;;;5037918;28;20419;-95
2021/11/02 15:08:47;;;;;;;5.70;2.83;;;;;;;;;;5038954;28;20025;-94
2021/11/02 15:11:14;;;;;;;4.75;2.58;;;;;;;;;;5051736;28;20045;-95
2021/11/02 15:13:40;;;;;;;10.55;3.53;;;;;;;;;;5052471;28;20005;-94
2021/11/02 15:16:07;;;;;;;7.32;3.30;;;;;;;;;;5053569;28;20014;-94
2021/11/02 15:18:38;;;;;;;8.00;3.20;;;;;;;;;;5053864;28;20065;-95
2021/11/02 15:21:04;;;;;;;9.38;5.00;;;;;;;;;;5051887;28;20097;-95
2021/11/02 15:23:40;;;;;;;7.68;3.75;;;;;;;;;;5054345;28;20041;-94
2021/11/02 15:26:06;;;;;;;6.47;3.35;;;;;;;;;;5052197;28;20029;-94
2021/11/02 15:28:40;;;;;;;7.47;3.78;;;;;;;;;;5052011;28;20114;-93
2021/11/02 15:31:06;;;;;;;7.13;3.65;;;;;;;;;;5051249;28;20025;-94
2021/11/02 15:33:33;;;;;;;8.15;4.78;;;;;;;;;;5053862;28;20013;-94
2021/11/02 15:36:18;;;;;;;8.80;4.07;;;;;;;;;;5053310;28;20026;-95
2021/11/02 15:38:55;;;;;;;7.95;4.55;;;;;;;;;;5053048;28;20025;-94
2021/11/02 15:41:22;;;;;;;8.68;3.85;;;;;;;;;;5053479;28;20112;-94
2021/11/02 15:43:53;;;;;;;8.85;4.60;;;;;;;;;;5066725;28;20025;-95
2021/11/02 15:46:21;;;;;;;13.90;5.60;;;;;;;;;;5071676;28;20032;-95
2021/11/02 15:48:47;;;;;;;6.30;4.03;;;;;;;;;;5071956;28;20043;-95
2021/11/02 15:51:16;;;;;;;10.68;4.90;;;;;;;;;;5065405;28;20467;-95
2021/11/02 15:53:42;;;;;;;8.35;4.35;;;;;;;;;;5053917;28;20025;-95
2021/11/02 15:56:08;;;;;;;7.57;4.63;;;;;;;;;;5044052;28;20029;-95
2021/11/02 15:58:34;;;;;;;8.75;4.22;;;;;;;;;;5033359;28;20361;-95
2021/11/02 16:01:00;;;;;;;7.28;4.47;;;;;;;;;;5035300;28;20037;-94
2021/11/02 16:03:30;;;;;;;9.50;4.63;;;;;;;;;;5033462;28;20025;-95
2021/11/02 16:05:56;;;;;;;7.38;5.00;;;;;;;;;;5018260;28;20312;-94
2021/11/02 16:08:23;;;;;;;11.60;6.15;;;;;;;;;;5013258;28;20268;-93
2021/11/02 16:10:50;;;;;;;17.35;8.60;;;;;;;;;;5013797;28;20049;-94
2021/11/02 16:13:16;;;;;;;14.93;8.30;;;;;;;;;;5012749;28;20018;-95
2021/11/02 16:15:43;;;;;;;14.82;8.52;;;;;;;;;;5023091;28;20407;-93
2021/11/02 16:18:17;;;;;;;14.77;7.10;;;;;;;;;;5031761;28;20022;-94
2021/11/02 16:20:44;;;;;;;11.90;6.75;;;;;;;;;;5031283;28;20103;-94
2021/11/02 16:23:10;;;;;;;14.05;6.97;;;;;;;;;;5031389;28;20033;-95
2021/11/02 16:25:38;;;;;;;10.18;6.05;;;;;;;;;;5031516;28;20067;-94
2021/11/02 16:28:06;;;;;;;11.07;5.65;;;;;;;;;;5031544;28;20476;-93
2021/11/02 16:30:40;;;;;;;7.72;5.28;;;;;;;;;;5019521;28;20038;-94
2021/11/02 16:33:06;;;;;;;7.57;4.95;;;;;;;;;;5011550;28;20030;-94
2021/11/02 16:35:44;;;;;;;7.82;4.63;;;;;;;;;;5011966;28;20030;-94
2021/11/02 16:38:21;;;;;;;9.55;5.28;;;;;;;;;;5012093;28;20072;-94
2021/11/02 16:40:49;;;;;;;10.20;5.38;;;;;;;;;;5016062;28;20033;-95
2021/11/02 16:43:15;;;;;;;13.20;9.13;;;;;;;;;;5031942;28;20025;-94
2021/11/02 16:45:48;;;;;;;13.45;10.25;;;;;;;;;;5030538;28;20159;-95
2021/11/02 16:48:14;;;;;;;;;;;;;;;;;;5031863;28;20029;-94
2021/11/02 16:50:40;;;;;;;10.00;5.30;;;;;;;;;;5031441;28;20043;-94
2021/11/02 16:53:16;;;;;;;10.80;6.28;;;;;;;;;;5032628;28;20037;-94
2021/11/02 16:55:44;;;;;;;9.77;5.40;;;;;;;;;;5031839;28;20046;-93
2021/11/02 16:58:22;;;;;;;10.57;6.20;;;;;;;;;;5031469;28;20029;-94
2021/11/02 17:00:49;;;;;;;10.90;6.22;;;;;;;;;;5031607;28;20030;-94
2021/11/02 17:03:23;;;;;;;9.95;6.07;;;;;;;;;;5032811;28;20025;-94
2021/11/02 17:05:49;;;;;;;10.48;6.88;;;;;;;;;;5035992;28;20030;-95
2021/11/02 17:08:16;;;;;;;13.18;8.00;;;;;;;;;;5034888;28;20026;-94
2021/11/02 17:10:43;;;;;;;13.70;8.55;;;;;;;;;;5022197;28;20479;-93
2021/11/02 17:13:20;;;;;;;20.10;9.57;;;;;;;;;;5032098;28;20079;-94
2021/11/02 17:15:54;;;;;;;26.38;14.27;;;;;;;;;;5032997;28;20022;-94
2021/11/02 17:18:27;;;;;;;24.50;14.63;;;;;;;;;;5033987;28;20109;-95
2021/11/02 17:21:01;;;;;;;32.85;18.42;;;;;;;;;;5031157;28;20045;-95
2021/11/02 17:23:27;;;;;;;33.72;22.55;;;;;;;;;;5030881;28;20055;-95
2021/11/02 17:25:53;;;;;;;30.85;19.60;;;;;;;;;;5030881;28;20120;-95
2021/11/02 17:28:20;;;;;;;26.83;18.45;;;;;;;;;;5030849;28;20022;-95
2021/11/02 17:30:46;;;;;;;26.50;16.75;;;;;;;;;;5030585;28;20025;-95
2021/11/02 17:33:12;;;;;;;21.25;15.00;;;;;;;;;;5030428;28;20033;-95
2021/11/02 17:35:38;;;;;;;23.02;14.55;;;;;;;;;;5030527;28;20510;-95
2021/11/02 17:38:05;;;;;;;21.13;14.65;;;;;;;;;;5029725;28;20139;-94
2021/11/02 17:40:32;;;;;;;22.58;13.85;;;;;;;;;;5030409;28;20029;-95
2021/11/02 17:42:59;;;;;;;24.88;15.45;;;;;;;;;;5030584;28;20511;-95
2021/11/02 17:45:26;;;;;;;22.85;14.77;;;;;;;;;;5031405;28;20029;-95
2021/11/02 17:47:53;;;;;;;21.27;14.70;;;;;;;;;;5030093;28;20029;-94
2021/11/02 17:50:21;;;;;;;22.50;14.73;;;;;;;;;;5030326;28;20360;-95
2021/11/02 17:52:47;;;;;;;18.17;13.57;;;;;;;;;;5023281;28;20069;-94
2021/11/02 17:55:15;;;;;;;18.40;11.80;;;;;;;;;;5010533;28;20454;-95
2021/11/02 17:57:42;;;;;;;16.85;11.05;;;;;;;;;;5014039;28;20467;-94
2021/11/02 18:00:09;;;;;;;13.60;9.70;;;;;;;;;;5014446;28;20289;-95
2021/11/02 18:02:35;;;;;;;14.35;9.40;;;;;;;;;;5018311;28;20583;-95
2021/11/02 18:05:02;;;;;;;17.23;9.20;;;;;;;;;;5040238;28;20030;-94
2021/11/02 18:07:28;;;;;;;14.77;9.88;;;;;;;;;;5034223;28;20061;-95
2021/11/02 18:09:55;;;;;;;13.80;9.25;;;;;;;;;;5034446;28;20137;-95
2021/11/02 18:12:22;;;;;;;15.90;9.68;;;;;;;;;;5034825;28;20026;-95
2021/11/02 18:14:48;;;;;;;19.63;10.70;;;;;;;;;;5032973;28;20029;-93
2021/11/02 18:17:21;;;;;;;13.18;7.90;;;;;;;;;;5046096;28;20067;-95
2021/11/02 18:19:51;;;;;;;15.65;9.07;;;;;;;;;;5025383;28;20128;-94
2021/11/02 18:22:18;;;;;;;12.38;8.98;;;;;;;;;;5030381;28;20049;-93
2021/11/02 18:24:45;;;;;;;13.32;8.65;;;;;;;;;;5021005;28;20025;-93
2021/11/02 18:27:11;;;;;;;13.48;8.40;;;;;;;;;;5022352;28;20032;-92
2021/11/02 18:29:38;;;;;;;11.15;7.07;;;;;;;;;;5034086;28;20029;-94
2021/11/02 18:32:04;;;;;;;12.77;7.97;;;;;;;;;;5037612;28;20053;-94
2021/11/02 18:34:30;;;;;;;11.38;7.85;;;;;;;;;;5032555;28;20025;-95
2021/11/02 18:36:57;;;;;;;11.23;7.80;;;;;;;;;;5032071;28;20065;-93
2021/11/02 18:39:23;;;;;;;11.52;6.88;;;;;;;;;;5035520;28;20033;-94
2021/11/02 18:41:50;;;;;;;13.20;8.63;;;;;;;;;;5034883;28;20096;-94
2021/11/02 18:44:16;;;;;;;11.48;7.72;;;;;;;;;;5035419;28;20017;-93
2021/11/02 18:46:42;;;;;;;15.60;10.52;;;;;;;;;;5034090;28;20029;-95
2021/11/02 18:49:09;;;;;;;14.80;9.70;;;;;;;;;;5033767;28;20116;-94
2021/11/02 18:51:35;;;;;;;13.90;9.32;;;;;;;;;;5033353;28;20040;-93
2021/11/02 18:54:01;;;;;;;14.20;8.43;;;;;;;;;;5028267;28;20025;-93
2021/11/02 18:56:28;;;;;;;14.98;9.57;;;;;;;;;;5038527;28;20029;-94
2021/11/02 18:58:54;;;;;;;15.02;10.00;;;;;;;;;;5023619;28;20025;-94
2021/11/02 19:01:26;;;;;;;17.13;11.07;;;;;;;;;;5032768;28;20462;-93
2021/11/02 19:03:53;;;;;;;20.63;14.40;;;;;;;;;;5033169;28;20111;-94
2021/11/02 19:06:20;;;;;;;22.20;15.05;;;;;;;;;;5035759;28;20035;-94
2021/11/02 19:08:45;;;;;;;18.85;13.93;;;;;;;;;;5013224;28;20018;-94
2021/11/02 19:11:12;;;;;;;18.83;12.85;;;;;;;;;;5022866;28;20126;-93
2021/11/02 19:13:38;;;;;;;18.92;13.43;;;;;;;;;;5017779;28;20030;-94
2021/11/02 19:16:04;;;;;;;18.60;14.05;;;;;;;;;;5037787;28;20056;-93
2021/11/02 19:18:32;;;;;;;18.35;13.30;;;;;;;;;;5032311;28;20033;-94
2021/11/02 19:20:59;;;;;;;23.67;16.48;;;;;;;;;;5034392;28;20045;-93
2021/11/02 19:23:28;;;;;;;20.92;17.17;;;;;;;;;;5016332;28;20034;-95
2021/11/02 19:25:54;;;;;;;22.88;16.05;;;;;;;;;;5039965;28;20021;-94
2021/11/02 19:28:20;;;;;;;27.67;19.95;;;;;;;;;;5034578;28;20029;-94
2021/11/02 19:30:46;;;;;;;35.22;24.35;;;;;;;;;;5042849;28;20033;-95
2021/11/02 19:33:13;;;;;;;30.33;23.20;;;;;;;;;;5053088;28;20021;-94
2021/11/02 19:35:40;;;;;;;27.15;20.10;;;;;;;;;;5052567;28;20028;-95
2021/11/02 19:38:06;;;;;;;26.40;18.83;;;;;;;;;;5019917;28;20388;-93
2021/11/02 19:40:32;;;;;;;25.75;16.42;;;;;;;;;;5033117;28;20033;-94
2021/11/02 19:42:59;;;;;;;19.60;12.45;;;;;;;;;;5030582;28;20166;-94
2021/11/02 19:45:25;;;;;;;22.35;14.75;;;;;;;;;;5027302;28;20026;-94